Kidlington, United Kingdom
Current Conditions -  °F | °C
As of 10:20 PM on Thursday 27 Nov 2014 (Local Time) from EGTK Reporting Station
Overcast Overcast  
Wind Chill: 44°   Ceiling: 4000
Heat Index: 46°   Visibility: 3mi
Dew Point: 46°   Wind: 6mph
Humidity: 100%   Direction: 80°E
Pressure: 29.56"   Gusts: NA
Location:  51.82°N, 1.29°W
Report Text: EGTK 272220Z 08005KT 5000 OVC040 08/08 Q1001
Loading
Personal Weather Stations






























Interactive Weather Map New forecast layout! Learn more

10-Day Weather Forecast

Advertisements
Track Severe Weather on mobile